Providence, Rhode Island
Current Conditions -  °F | °C
As of 7:30 AM on Monday 22 Dec 2014 (Local Time) from KPVD Reporting Station
Overcast Overcast  
Wind Chill: 29°   Ceiling: 900
Heat Index: 34°   Visibility: 10mi
Dew Point: 30°   Wind: 6mph
Humidity: 85%   Direction: 40°NE
Pressure: 30.38"   Gusts: NA
Location:  41.82°N, 71.41°W
Report Text: KPVD 221230Z 04005KT 10SM OVC009 01/M01 A3038 RMK AO2 T00111011
Loading
Personal Weather Stations






























Interactive Weather Map New forecast layout! Learn more

10-Day Weather Forecast

Advertisements
Track Severe Weather on mobile